createdAt,value
2019-03-28T00:04:07.441Z,19.30
2019-03-28T00:08:21.393Z,16.57
2019-03-28T00:12:34.522Z,18.70
2019-03-28T00:16:48.435Z,17.50
2019-03-28T00:21:01.666Z,18.33
2019-03-28T00:25:15.251Z,19.23
2019-03-28T00:29:28.762Z,21.00
2019-03-28T00:33:42.029Z,19.03
2019-03-28T00:37:55.257Z,17.60
2019-03-28T00:42:08.084Z,21.10
2019-03-28T00:46:21.265Z,18.47
2019-03-28T00:50:34.726Z,19.13
2019-03-28T00:54:48.419Z,18.17
2019-03-28T00:59:01.647Z,22.03
2019-03-28T01:03:14.568Z,18.03
2019-03-28T01:07:27.591Z,21.40
2019-03-28T01:11:40.732Z,22.57
2019-03-28T01:15:53.656Z,21.17
2019-03-28T01:20:06.828Z,20.43
2019-03-28T01:24:20.091Z,18.93
2019-03-28T01:28:33.473Z,21.33
2019-03-28T01:32:46.397Z,22.80
2019-03-28T01:36:59.326Z,18.23
2019-03-28T01:41:12.452Z,20.60
2019-03-28T01:45:25.289Z,20.77
2019-03-28T01:49:38.409Z,20.97
2019-03-28T01:53:51.722Z,17.43
2019-03-28T01:58:05.282Z,22.63
2019-03-28T02:02:18.628Z,22.70
2019-03-28T02:06:31.563Z,21.03
2019-03-28T02:10:44.584Z,23.17
2019-03-28T02:14:58.140Z,24.33
2019-03-28T02:19:11.784Z,21.03
2019-03-28T02:23:24.684Z,26.90
2019-03-28T02:27:37.760Z,20.97
2019-03-28T02:31:51.033Z,22.37
2019-03-28T02:36:03.800Z,23.07
2019-03-28T02:40:16.890Z,22.10
2019-03-28T02:44:30.146Z,22.27
2019-03-28T02:48:43.382Z,21.37
2019-03-28T02:52:56.313Z,23.07
2019-03-28T02:57:09.503Z,20.67
2019-03-28T03:01:22.676Z,23.13
2019-03-28T03:05:35.504Z,23.80
2019-03-28T03:09:49.555Z,20.57
2019-03-28T03:14:02.487Z,20.17
2019-03-28T03:18:15.532Z,22.73
2019-03-28T03:22:28.923Z,23.93
2019-03-28T03:26:42.338Z,25.97
2019-03-28T03:30:55.216Z,21.83
2019-03-28T03:35:08.353Z,24.30
2019-03-28T03:39:21.489Z,20.47
2019-03-28T03:43:34.309Z,21.60
2019-03-28T03:47:47.246Z,20.43
2019-03-28T03:52:00.476Z,24.47
2019-03-28T03:56:14.240Z,29.17
2019-03-28T04:00:34.743Z,21.27
2019-03-28T04:04:47.979Z,22.40
2019-03-28T04:09:01.001Z,23.27
2019-03-28T04:13:14.656Z,24.50
2019-03-28T04:17:27.912Z,23.23
2019-03-28T04:21:40.816Z,21.20
2019-03-28T04:25:53.941Z,23.43
2019-03-28T04:30:07.437Z,24.77
2019-03-28T04:34:21.034Z,25.53
2019-03-28T04:38:34.249Z,28.03
2019-03-28T04:42:47.173Z,23.80
2019-03-28T04:47:00.104Z,26.97
2019-03-28T04:51:13.666Z,28.90
2019-03-28T04:55:26.880Z,25.03
2019-03-28T04:59:40.155Z,25.60
2019-03-28T05:03:53.109Z,26.67
2019-03-28T05:08:06.276Z,27.50
2019-03-28T05:12:19.414Z,25.07
2019-03-28T05:16:32.340Z,24.43
2019-03-28T05:20:45.370Z,29.47
2019-03-28T05:24:58.931Z,27.23
2019-03-28T05:29:12.780Z,27.67
2019-03-28T05:33:26.061Z,25.73
2019-03-28T05:37:39.236Z,27.77
2019-03-28T05:41:52.156Z,26.63
2019-03-28T05:46:05.201Z,30.73
2019-03-28T05:50:18.321Z,30.63
2019-03-28T05:54:31.255Z,25.97
2019-03-28T05:58:44.275Z,27.30
2019-03-28T06:02:57.840Z,29.53
2019-03-28T06:07:11.483Z,26.67
2019-03-28T06:11:24.804Z,27.20
2019-03-28T06:15:40.813Z,31.10
2019-03-28T06:19:52.493Z,30.23
2019-03-28T06:24:05.532Z,29.43
2019-03-28T06:28:18.861Z,27.90
2019-03-28T06:32:42.222Z,31.17
2019-03-28T06:36:47.661Z,27.10
2019-03-28T06:41:00.520Z,30.87
2019-03-28T06:45:13.547Z,29.87
2019-03-28T06:49:27.109Z,33.63
2019-03-28T06:53:40.753Z,30.20
2019-03-28T06:57:54.068Z,32.77
2019-03-28T07:02:07.300Z,30.37
2019-03-28T07:06:20.277Z,30.27
2019-03-28T07:10:33.361Z,27.37
2019-03-28T07:14:47.044Z,25.57
2019-03-28T07:19:00.244Z,29.23
2019-03-28T07:23:12.970Z,27.10
2019-03-28T07:27:26.100Z,25.63
2019-03-28T07:31:40.501Z,22.93
2019-03-28T07:35:53.593Z,25.50
2019-03-28T07:40:07.012Z,23.37
2019-03-28T07:44:20.088Z,24.43
2019-03-28T07:48:34.008Z,19.67
2019-03-28T07:52:47.111Z,22.67
2019-03-28T07:57:01.017Z,23.17
2019-03-28T08:01:14.230Z,19.77
2019-03-28T08:05:27.056Z,22.20
2019-03-28T08:09:40.053Z,20.53
2019-03-28T08:13:53.220Z,18.07
2019-03-28T08:18:06.617Z,16.03
2019-03-28T08:22:19.595Z,19.87
2019-03-28T08:26:32.724Z,18.10
2019-03-28T08:30:46.385Z,14.57
2019-03-28T08:35:00.387Z,15.90
2019-03-28T08:39:14.577Z,15.33
2019-03-28T08:43:27.565Z,18.57
2019-03-28T08:47:40.642Z,20.23
2019-03-28T08:51:54.299Z,15.60
2019-03-28T08:56:07.943Z,16.37
2019-03-28T09:00:32.251Z,15.40
2019-03-28T09:04:36.033Z,18.00
2019-03-28T09:08:48.960Z,15.30
2019-03-28T09:13:02.485Z,16.60
2019-03-28T09:17:17.169Z,16.03
2019-03-28T09:21:30.513Z,19.57
2019-03-28T09:25:43.443Z,17.63
2019-03-28T09:29:56.592Z,18.17
2019-03-28T09:34:10.231Z,16.57
2019-03-28T09:38:23.878Z,17.90
2019-03-28T09:42:37.162Z,15.37
2019-03-28T09:46:50.442Z,17.63
2019-03-28T09:51:03.365Z,21.20
2019-03-28T09:55:18.857Z,15.73
2019-03-28T09:59:31.615Z,16.80
2019-03-28T10:03:44.952Z,17.83
2019-03-28T10:07:57.982Z,17.90
2019-03-28T10:12:11.170Z,13.87
2019-03-28T10:16:24.442Z,17.40
2019-03-28T10:20:37.782Z,16.73
2019-03-28T10:24:50.819Z,18.23
2019-03-28T10:29:04.070Z,16.20
2019-03-28T10:33:17.674Z,16.23
2019-03-28T10:37:31.315Z,16.37
2019-03-28T10:41:44.571Z,14.83
2019-03-28T10:45:57.570Z,16.40
2019-03-28T10:50:11.816Z,12.90
2019-03-28T10:54:25.885Z,17.67
2019-03-28T10:58:39.210Z,15.23
2019-03-28T11:02:53.031Z,14.67
2019-03-28T11:07:07.857Z,15.57
2019-03-28T11:11:20.773Z,14.80
2019-03-28T11:15:33.875Z,13.97
2019-03-28T11:19:47.138Z,14.00
2019-03-28T11:24:00.815Z,17.27
2019-03-28T11:28:14.113Z,15.30
2019-03-28T11:32:27.069Z,11.77
2019-03-28T11:36:40.236Z,15.27
2019-03-28T11:40:53.400Z,15.30
2019-03-28T11:45:09.266Z,13.53
2019-03-28T11:49:21.264Z,14.70
2019-03-28T11:53:34.338Z,12.20
2019-03-28T11:57:48.292Z,14.70
2019-03-28T12:02:18.641Z,13.60
2019-03-28T12:06:16.185Z,17.10
2019-03-28T12:10:29.417Z,15.07
2019-03-28T12:14:42.250Z,17.17
2019-03-28T12:18:55.572Z,16.97
2019-03-28T12:23:08.719Z,15.90
2019-03-28T12:27:22.052Z,15.67
2019-03-28T12:31:35.098Z,17.07
2019-03-28T12:35:48.283Z,19.00
2019-03-28T12:40:01.979Z,17.57
2019-03-28T12:44:15.208Z,14.93
2019-03-28T12:48:28.760Z,19.57
2019-03-28T12:52:41.732Z,14.53
2019-03-28T12:56:57.946Z,17.57
2019-03-28T13:01:09.567Z,15.40
2019-03-28T13:05:22.292Z,13.53
2019-03-28T13:09:35.852Z,18.50
2019-03-28T13:13:48.969Z,17.83
2019-03-28T13:18:02.524Z,18.00
2019-03-28T13:22:15.832Z,17.87
2019-03-28T13:26:28.663Z,16.40
2019-03-28T13:30:41.742Z,18.10
2019-03-28T13:34:55.463Z,22.40
2019-03-28T13:39:09.626Z,19.70
2019-03-28T13:43:22.729Z,18.73
2019-03-28T13:47:35.972Z,22.20
2019-03-28T13:51:48.801Z,19.43
2019-03-28T13:56:01.906Z,20.70
2019-03-28T14:00:15.498Z,19.33
2019-03-28T14:04:28.608Z,20.93
2019-03-28T14:08:41.740Z,22.53
2019-03-28T14:12:54.660Z,23.40
2019-03-28T14:17:07.693Z,22.83
2019-03-28T14:21:20.511Z,22.77
2019-03-28T14:25:33.541Z,22.20
2019-03-28T14:29:47.505Z,25.93
2019-03-28T14:34:00.828Z,20.73
2019-03-28T14:38:14.699Z,23.77
2019-03-28T14:42:27.927Z,21.43
2019-03-28T14:46:41.151Z,21.23
2019-03-28T14:50:54.051Z,17.73
2019-03-28T14:55:07.117Z,22.40
2019-03-28T14:59:31.716Z,26.30
2019-03-28T15:03:35.829Z,21.47
2019-03-28T15:07:51.532Z,21.20
2019-03-28T15:12:04.760Z,20.50
2019-03-28T15:16:17.893Z,20.53
2019-03-28T15:20:30.825Z,20.03
2019-03-28T15:24:43.872Z,21.67
2019-03-28T15:28:57.508Z,21.67
2019-03-28T15:33:11.359Z,21.73
2019-03-28T15:37:24.737Z,22.53
2019-03-28T15:41:37.873Z,23.73
2019-03-28T15:45:50.844Z,20.07
2019-03-28T15:50:03.877Z,23.53
2019-03-28T15:54:17.530Z,22.70
2019-03-28T15:58:30.748Z,26.10
2019-03-28T16:02:43.854Z,19.97
2019-03-28T16:06:56.815Z,23.33
2019-03-28T16:11:10.049Z,21.70
2019-03-28T16:15:22.876Z,23.93
2019-03-28T16:19:35.902Z,25.23
2019-03-28T16:23:49.455Z,25.03
2019-03-28T16:28:02.676Z,23.50
2019-03-28T16:32:16.277Z,21.33
2019-03-28T16:36:29.383Z,22.37
2019-03-28T16:40:42.385Z,20.23
2019-03-28T16:44:55.612Z,19.47
2019-03-28T16:49:08.752Z,18.23
2019-03-28T16:53:21.572Z,16.80
2019-03-28T16:57:34.728Z,17.23
2019-03-28T17:01:48.249Z,20.93
2019-03-28T17:06:03.441Z,21.00
2019-03-28T17:10:44.817Z,23.13
2019-03-28T17:14:58.479Z,19.93
2019-03-28T17:19:11.704Z,20.53
2019-03-28T17:23:24.624Z,18.77
2019-03-28T17:27:37.668Z,17.27
2019-03-28T17:31:51.089Z,15.67
2019-03-28T17:36:04.857Z,17.10
2019-03-28T17:40:18.501Z,19.07
2019-03-28T17:44:32.145Z,16.83
2019-03-28T17:48:45.369Z,20.53
2019-03-28T17:52:58.204Z,17.07
2019-03-28T17:57:13.574Z,14.73
2019-03-28T18:01:26.715Z,17.43
2019-03-28T18:05:40.812Z,18.00
2019-03-28T18:09:53.897Z,18.30
2019-03-28T18:14:07.445Z,21.73
2019-03-28T18:18:20.674Z,17.53
2019-03-28T18:22:33.600Z,14.90
2019-03-28T18:26:46.635Z,17.27
2019-03-28T18:30:59.864Z,18.23
2019-03-28T18:35:13.110Z,12.63
2019-03-28T18:39:26.235Z,16.33
2019-03-28T18:43:39.369Z,14.20
2019-03-28T18:47:52.602Z,14.53
2019-03-28T18:52:07.388Z,19.53
2019-03-28T18:56:20.333Z,13.63
2019-03-28T19:00:34.240Z,13.63
2019-03-28T19:04:47.382Z,18.13
2019-03-28T19:09:01.144Z,16.67
2019-03-28T19:13:14.353Z,15.47
2019-03-28T19:17:27.601Z,15.93
2019-03-28T19:21:40.517Z,14.63
2019-03-28T19:25:53.562Z,19.70
2019-03-28T19:30:07.295Z,20.00
2019-03-28T19:34:20.670Z,20.30
2019-03-28T19:38:34.250Z,19.10
2019-03-28T19:42:47.938Z,20.17
2019-03-28T19:47:01.587Z,21.33
2019-03-28T19:51:14.810Z,22.33
2019-03-28T19:55:28.763Z,22.07
2019-03-28T19:59:41.994Z,20.77
2019-03-28T20:03:55.754Z,25.20
2019-03-28T20:08:15.452Z,25.03
2019-03-28T20:12:24.231Z,23.57
2019-03-28T20:16:37.494Z,25.50
2019-03-28T20:20:50.417Z,23.73
2019-03-28T20:25:03.449Z,25.73
2019-03-28T20:29:16.686Z,24.60
2019-03-28T20:33:29.569Z,26.77
2019-03-28T20:37:42.699Z,25.70
2019-03-28T20:41:56.296Z,27.17
2019-03-28T20:46:09.517Z,27.10
2019-03-28T20:50:23.051Z,28.47
2019-03-28T20:54:35.989Z,27.40
2019-03-28T20:58:48.913Z,30.20
2019-03-28T21:03:03.281Z,27.60
2019-03-28T21:07:18.674Z,26.57
2019-03-28T21:11:31.649Z,24.80
2019-03-28T21:15:45.732Z,26.67
2019-03-28T21:19:58.878Z,29.03
2019-03-28T21:24:11.928Z,28.50
2019-03-28T21:28:25.389Z,24.97
2019-03-28T21:32:39.107Z,28.40
2019-03-28T21:36:52.957Z,26.70
2019-03-28T21:41:06.270Z,30.20
2019-03-28T21:45:19.517Z,29.20
2019-03-28T21:49:32.853Z,30.93
2019-03-28T21:53:45.789Z,28.60
2019-03-28T21:57:58.825Z,28.27
2019-03-28T22:02:12.470Z,29.07
2019-03-28T22:06:25.810Z,30.67
2019-03-28T22:10:38.622Z,30.07
2019-03-28T22:14:51.607Z,29.50
2019-03-28T22:19:05.433Z,32.73
2019-03-28T22:23:18.628Z,30.77
2019-03-28T22:27:32.285Z,32.73
2019-03-28T22:31:45.934Z,31.80
2019-03-28T22:35:59.286Z,29.17
2019-03-28T22:40:13.117Z,31.53
2019-03-28T22:44:26.864Z,30.10
2019-03-28T22:48:40.156Z,29.90
2019-03-28T22:52:53.530Z,29.60
2019-03-28T22:57:07.649Z,32.30
2019-03-28T23:01:21.075Z,30.17
2019-03-28T23:05:34.657Z,32.43
2019-03-28T23:09:47.906Z,32.53
2019-03-28T23:14:00.833Z,30.23
2019-03-28T23:18:13.933Z,30.07
2019-03-28T23:22:27.189Z,31.27
2019-03-28T23:26:40.425Z,32.30
2019-03-28T23:30:53.158Z,29.53
2019-03-28T23:35:06.653Z,30.60
2019-03-28T23:39:20.009Z,29.40
2019-03-28T23:43:33.164Z,28.60
2019-03-28T23:47:46.149Z,31.60
2019-03-28T23:51:59.225Z,29.53
2019-03-28T23:56:12.465Z,27.77
